Time;durP1;ratioP1;P1;durP2;ratioP2;P2;SDS_P1;SDS_P2;PMS_P1;PMS_P2;Temp;Humidity;BMP_temperature;BMP_pressure;BME280_temperature;BME280_humidity;BME280_pressure;Samples;Min_cycle;Max_cycle;Signal;HPM_P1;HPM_P2
2023/06/09 00:01:44;;;;;;;12.05;3.70;;;;;;;-143.48;71.01;118439.88;5016099;28;20534;-79
2023/06/09 00:04:09;;;;;;;12.98;3.72;;;;;;;-143.48;70.93;118439.88;5034144;28;20041;-79
2023/06/09 00:06:35;;;;;;;12.27;3.60;;;;;;;-143.48;72.36;118439.88;5016443;28;20476;-79
2023/06/09 00:09:04;;;;;;;15.10;3.53;;;;;;;-143.48;72.61;118439.88;5034282;28;20052;-79
2023/06/09 00:11:29;;;;;;;17.13;3.80;;;;;;;-143.48;71.66;118439.88;5017015;28;20036;-78
2023/06/09 00:13:55;;;;;;;14.30;3.70;;;;;;;-143.48;72.22;118439.88;5034654;28;20116;-79
2023/06/09 00:16:23;;;;;;;15.82;3.38;;;;;;;-143.48;72.06;118439.88;5033771;28;20091;-79
2023/06/09 00:18:52;;;;;;;14.98;3.95;;;;;;;-143.48;72.88;118439.88;5033475;28;20032;-79
2023/06/09 00:21:21;;;;;;;16.33;3.63;;;;;;;-143.48;72.30;118439.88;5037979;28;20040;-79
2023/06/09 00:23:47;;;;;;;11.13;3.20;;;;;;;-143.48;72.33;118439.88;5040426;28;20009;-79
2023/06/09 00:26:13;;;;;;;12.98;3.38;;;;;;;-143.48;73.26;118439.88;5022184;28;20491;-79
2023/06/09 00:28:39;;;;;;;12.35;3.60;;;;;;;-143.48;72.32;118439.88;5021779;28;20075;-79
2023/06/09 00:31:05;;;;;;;12.52;3.58;;;;;;;-143.48;72.94;118439.88;5033171;28;20107;-78
2023/06/09 00:33:30;;;;;;;15.95;3.63;;;;;;;-143.48;73.22;118439.88;5023148;28;20495;-78
2023/06/09 00:35:56;;;;;;;14.95;4.15;;;;;;;-143.48;73.30;118439.88;5022885;28;20029;-79
2023/06/09 00:38:21;;;;;;;14.52;3.85;;;;;;;-143.48;73.46;118439.88;5040374;28;20087;-79
2023/06/09 00:40:48;;;;;;;18.52;3.72;;;;;;;-143.48;73.83;118439.88;5022288;28;20025;-79
2023/06/09 00:43:14;;;;;;;13.20;3.83;;;;;;;-143.48;72.98;118439.88;5040095;28;20025;-80
2023/06/09 00:45:40;;;;;;;12.68;3.38;;;;;;;-143.48;72.81;118439.88;5040701;28;20033;-79
2023/06/09 00:48:05;;;;;;;19.45;4.03;;;;;;;-143.48;73.14;118439.88;5040448;28;20027;-80
2023/06/09 00:50:31;;;;;;;10.55;3.35;;;;;;;-143.48;72.29;118439.88;5040743;28;20029;-80
2023/06/09 00:52:58;;;;;;;17.55;3.75;;;;;;;-143.48;73.02;118439.88;5040123;28;20469;-79
2023/06/09 00:55:25;;;;;;;11.35;3.80;;;;;;;-143.48;73.53;118439.88;5040361;28;20460;-79
2023/06/09 00:57:55;;;;;;;11.80;3.65;;;;;;;-143.48;73.03;118439.88;5040827;28;20091;-80
2023/06/09 01:00:24;;;;;;;13.63;3.53;;;;;;;-143.48;73.49;118439.88;5040095;28;20056;-79
2023/06/09 01:02:50;;;;;;;14.57;3.80;;;;;;;-143.48;74.18;118439.88;5021871;28;20044;-79
2023/06/09 01:05:16;;;;;;;13.30;3.55;;;;;;;-143.48;73.26;118439.88;5022559;28;20365;-79
2023/06/09 01:08:05;;;;;;;12.52;3.70;;;;;;;-143.48;73.40;118439.88;5022143;28;20031;-79
2023/06/09 01:10:49;;;;;;;13.10;3.88;;;;;;;-143.48;74.07;118439.88;5032070;28;20033;-79
2023/06/09 01:13:18;;;;;;;18.67;3.55;;;;;;;-143.48;73.75;118439.88;5021581;28;20120;-79
2023/06/09 01:15:48;;;;;;;11.07;3.65;;;;;;;-143.48;73.42;118439.88;5022316;28;20491;-79
2023/06/09 01:18:17;;;;;;;16.27;3.90;;;;;;;-143.48;73.86;118439.88;5040387;28;20029;-79
2023/06/09 01:20:57;;;;;;;15.10;3.40;;;;;;;-143.48;73.72;118439.88;5039605;28;20025;-80
2023/06/09 01:23:32;;;;;;;13.00;3.85;;;;;;;-143.48;73.48;118439.88;5021877;28;20128;-79
2023/06/09 01:25:59;;;;;;;14.60;3.88;;;;;;;-143.48;74.12;118439.88;5039610;28;20025;-79
2023/06/09 01:28:26;;;;;;;12.43;3.63;;;;;;;-143.48;73.69;118439.88;5022042;28;20052;-79
2023/06/09 01:30:54;;;;;;;15.00;3.95;;;;;;;-143.48;74.12;118439.88;5021659;28;20025;-79
2023/06/09 01:33:21;;;;;;;9.35;3.63;;;;;;;-143.48;74.10;118439.88;5037227;28;20515;-79
2023/06/09 01:35:48;;;;;;;12.65;3.85;;;;;;;-143.48;74.04;118439.88;5019381;28;20026;-79
2023/06/09 01:38:15;;;;;;;13.43;3.70;;;;;;;-143.48;75.06;118439.88;5037371;28;20033;-79
2023/06/09 01:40:43;;;;;;;16.65;4.00;;;;;;;-143.48;74.96;118439.88;5036810;28;20400;-79
2023/06/09 01:43:08;;;;;;;13.32;3.92;;;;;;;-143.48;73.50;118439.88;5036595;28;20045;-79
2023/06/09 01:45:34;;;;;;;16.70;4.10;;;;;;;-143.48;73.08;118439.88;5037179;28;20124;-79
2023/06/09 01:48:08;;;;;;;16.70;4.05;;;;;;;-143.48;73.00;118439.88;5037047;28;20056;-79
2023/06/09 01:50:50;;;;;;;14.50;4.05;;;;;;;-143.48;73.04;118439.88;5037186;28;20071;-79
2023/06/09 01:53:22;;;;;;;11.25;3.60;;;;;;;-143.48;72.64;118439.88;5018926;28;20029;-79
2023/06/09 01:55:52;;;;;;;13.07;4.03;;;;;;;-143.48;71.86;118439.88;5019539;28;20116;-79
2023/06/09 01:58:23;;;;;;;12.98;3.72;;;;;;;-143.48;71.21;118439.88;5019413;28;20030;-79
2023/06/09 02:00:50;;;;;;;10.77;3.50;;;;;;;-143.48;71.42;118439.88;5036706;28;20025;-79
2023/06/09 02:03:20;;;;;;;13.70;3.92;;;;;;;-143.48;70.62;118439.88;5036760;28;20021;-79
2023/06/09 02:05:46;;;;;;;14.73;4.03;;;;;;;-143.48;70.68;118439.88;5019065;28;20121;-79
2023/06/09 02:08:12;;;;;;;16.02;4.00;;;;;;;-143.48;69.79;118439.88;5018946;28;20075;-79
2023/06/09 02:10:39;;;;;;;15.63;4.00;;;;;;;-143.48;69.86;118439.88;5018537;28;20029;-79
2023/06/09 02:13:19;;;;;;;18.75;4.70;;;;;;;-143.48;69.57;118439.88;5018017;28;20022;-79
2023/06/09 02:15:47;;;;;;;13.48;3.60;;;;;;;-143.48;69.61;118439.88;5017669;28;20476;-79
2023/06/09 02:18:15;;;;;;;12.50;3.55;;;;;;;-143.48;68.39;118439.88;5017874;28;20485;-80
2023/06/09 02:20:42;;;;;;;12.18;3.53;;;;;;;-143.48;68.83;118439.88;5036264;28;20025;-80
2023/06/09 02:23:08;;;;;;;10.88;3.75;;;;;;;-143.48;68.97;118439.88;5036081;28;20055;-79
2023/06/09 02:25:34;;;;;;;14.48;3.78;;;;;;;-143.48;69.30;118439.88;5036017;28;20030;-79
2023/06/09 02:28:04;;;;;;;11.43;3.35;;;;;;;-143.48;69.35;118439.88;5035884;28;20080;-79
2023/06/09 02:30:31;;;;;;;10.18;3.75;;;;;;;-143.48;69.49;118439.88;5035627;28;20373;-79
2023/06/09 02:32:58;;;;;;;13.73;3.60;;;;;;;-143.48;70.19;118439.88;5035717;28;20021;-79
2023/06/09 02:35:23;;;;;;;12.02;4.05;;;;;;;-143.48;69.78;118439.88;5035340;28;20049;-80
2023/06/09 02:37:49;;;;;;;11.63;3.75;;;;;;;-143.48;70.84;118439.88;5018190;28;20072;-79
2023/06/09 02:40:14;;;;;;;11.63;3.80;;;;;;;-143.48;70.66;118439.88;5035400;28;20108;-79
2023/06/09 02:42:39;;;;;;;10.73;3.53;;;;;;;-143.48;70.32;118439.88;5035270;28;20057;-79
2023/06/09 02:45:06;;;;;;;11.68;3.55;;;;;;;-143.48;70.33;118439.88;5016921;28;20037;-79
2023/06/09 02:47:31;;;;;;;13.10;3.85;;;;;;;-143.48;70.01;118439.88;5035413;28;20056;-79
2023/06/09 02:49:57;;;;;;;10.10;3.65;;;;;;;-143.48;69.58;118439.88;5017295;28;20061;-79
2023/06/09 02:52:22;;;;;;;12.95;4.07;;;;;;;-143.48;70.20;118439.88;5035414;28;20441;-79
2023/06/09 02:54:47;;;;;;;11.48;4.00;;;;;;;-143.48;71.11;118439.88;5034859;28;20503;-79
2023/06/09 02:57:13;;;;;;;13.68;3.95;;;;;;;-143.48;70.52;118439.88;5017287;28;20041;-79
2023/06/09 02:59:39;;;;;;;12.18;3.47;;;;;;;-143.48;70.09;118439.88;5034854;28;20357;-80
2023/06/09 03:02:05;;;;;;;12.00;3.70;;;;;;;-143.48;70.86;118439.88;5017009;28;20089;-80
2023/06/09 03:04:31;;;;;;;10.07;3.90;;;;;;;-143.48;70.26;118439.88;5034871;28;20025;-79
2023/06/09 03:06:56;;;;;;;14.45;3.70;;;;;;;-143.48;69.53;118439.88;5016959;28;20048;-79
2023/06/09 03:09:21;;;;;;;10.90;4.15;;;;;;;-143.48;69.36;118439.88;5035075;28;20029;-80
2023/06/09 03:11:47;;;;;;;12.95;4.05;;;;;;;-143.48;70.22;118439.88;5034427;28;20496;-79
2023/06/09 03:14:12;;;;;;;14.00;4.00;;;;;;;-143.48;70.89;118439.88;5016846;28;20029;-79
2023/06/09 03:16:37;;;;;;;13.85;3.83;;;;;;;-143.48;71.05;118439.88;5034328;28;20025;-80
2023/06/09 03:19:03;;;;;;;11.07;3.72;;;;;;;-143.48;70.24;118439.88;5034879;28;20106;-80
2023/06/09 03:21:28;;;;;;;12.90;3.92;;;;;;;-143.48;70.07;118439.88;5016593;28;20067;-80
2023/06/09 03:23:53;;;;;;;10.77;4.05;;;;;;;-143.48;70.65;118439.88;5034976;28;20384;-79
2023/06/09 03:26:19;;;;;;;10.43;3.65;;;;;;;-143.48;69.74;118439.88;5017347;28;20473;-79
2023/06/09 03:28:44;;;;;;;14.75;4.05;;;;;;;-143.48;70.53;118439.88;5017111;28;20032;-80
2023/06/09 03:31:10;;;;;;;12.45;4.10;;;;;;;-143.48;70.52;118439.88;5016781;28;20377;-79
2023/06/09 03:33:35;;;;;;;13.82;4.13;;;;;;;-143.48;70.81;118439.88;5034571;28;20116;-79
2023/06/09 03:36:01;;;;;;;14.38;4.55;;;;;;;-143.48;70.96;118439.88;5016317;28;20026;-79
2023/06/09 03:38:26;;;;;;;14.55;4.13;;;;;;;-143.48;70.36;118439.88;5034627;28;20025;-80
2023/06/09 03:40:52;;;;;;;15.60;4.15;;;;;;;-143.48;70.72;118439.88;5016398;28;20053;-80
2023/06/09 03:43:17;;;;;;;10.38;3.88;;;;;;;-143.48;70.83;118439.88;5033935;28;20013;-80
2023/06/09 03:45:42;;;;;;;13.10;4.35;;;;;;;-143.48;71.91;118439.88;5016407;28;20021;-80
2023/06/09 03:48:08;;;;;;;12.73;4.95;;;;;;;-143.48;71.03;118439.88;5034221;28;20022;-80
2023/06/09 03:50:33;;;;;;;14.80;4.20;;;;;;;-143.48;71.99;118439.88;5033881;28;20033;-80
2023/06/09 03:52:59;;;;;;;13.35;4.18;;;;;;;-143.48;72.40;118439.88;5034391;28;20367;-80
2023/06/09 03:55:25;;;;;;;12.95;3.97;;;;;;;-143.48;71.79;118439.88;5033236;28;20525;-80
2023/06/09 03:57:50;;;;;;;12.63;4.50;;;;;;;-143.48;72.45;118439.88;5016547;28;20025;-80
2023/06/09 04:00:17;;;;;;;11.18;3.97;;;;;;;-143.48;73.69;118439.88;5034088;28;20025;-80
2023/06/09 04:02:44;;;;;;;22.38;5.03;;;;;;;-143.48;73.41;118439.88;5013275;28;20133;-78
2023/06/09 04:05:09;;;;;;;15.20;4.80;;;;;;;-143.48;73.83;118439.88;5013271;28;20485;-80
2023/06/09 04:07:35;;;;;;;16.55;4.53;;;;;;;-143.48;73.14;118439.88;5014257;28;20026;-79
2023/06/09 04:10:02;;;;;;;14.20;4.22;;;;;;;-143.48;72.71;118439.88;5013766;28;20386;-80
2023/06/09 04:12:28;;;;;;;10.75;4.07;;;;;;;-143.48;73.00;118439.88;5013828;28;20030;-79
2023/06/09 04:14:53;;;;;;;14.07;4.10;;;;;;;-143.48;73.27;118439.88;5012798;28;20038;-79
2023/06/09 04:17:18;;;;;;;13.35;4.40;;;;;;;-143.48;74.68;118439.88;5013832;28;20025;-79
2023/06/09 04:19:44;;;;;;;16.80;4.63;;;;;;;-143.48;73.56;118439.88;5013985;28;20030;-79
2023/06/09 04:22:10;;;;;;;14.95;4.25;;;;;;;-143.48;72.79;118439.88;5014170;28;20056;-78
2023/06/09 04:24:36;;;;;;;17.23;4.70;;;;;;;-143.48;72.87;118439.88;5013943;28;20026;-79
2023/06/09 04:27:03;;;;;;;11.55;4.55;;;;;;;-143.48;74.37;118439.88;5013801;28;20030;-81
2023/06/09 04:29:31;;;;;;;21.90;4.50;;;;;;;-143.48;73.81;118439.88;5012893;28;20045;-78
2023/06/09 04:31:58;;;;;;;13.55;4.78;;;;;;;-143.48;74.18;118439.88;5012641;28;20080;-79
2023/06/09 04:34:26;;;;;;;15.10;4.68;;;;;;;-143.48;75.00;118439.88;5012718;28;20030;-79
2023/06/09 04:36:56;;;;;;;18.27;5.47;;;;;;;-143.48;75.17;118439.88;5013410;28;20080;-78
2023/06/09 04:39:24;;;;;;;15.55;4.90;;;;;;;-143.48;76.37;118439.88;5013923;28;20033;-79
2023/06/09 04:41:52;;;;;;;15.32;4.78;;;;;;;-143.48;75.57;118439.88;5013244;28;20018;-79
2023/06/09 04:44:18;;;;;;;13.40;4.43;;;;;;;-143.48;74.85;118439.88;5013380;28;20433;-79
2023/06/09 04:46:43;;;;;;;14.18;4.70;;;;;;;-143.48;76.17;118439.88;5012254;28;20026;-79
2023/06/09 04:49:09;;;;;;;17.83;5.38;;;;;;;-143.48;74.66;118439.88;5012551;28;20026;-79
2023/06/09 04:51:46;;;;;;;14.60;4.28;;;;;;;-143.48;74.77;118439.88;5013494;28;20025;-79
2023/06/09 04:54:20;;;;;;;17.17;5.10;;;;;;;-143.48;74.48;118439.88;5013431;28;20496;-79
2023/06/09 04:56:52;;;;;;;12.98;4.57;;;;;;;-143.48;74.41;118439.88;5012084;28;20026;-79
2023/06/09 04:59:17;;;;;;;13.15;4.80;;;;;;;-143.48;75.18;118439.88;5013410;28;20466;-79
2023/06/09 05:01:46;;;;;;;20.45;5.50;;;;;;;-143.48;75.71;118439.88;5011772;28;20052;-79
2023/06/09 05:04:12;;;;;;;16.55;4.82;;;;;;;-143.48;75.00;118439.88;5012431;28;20022;-79
2023/06/09 05:06:38;;;;;;;16.08;5.25;;;;;;;-143.48;75.49;118439.88;5014037;28;20021;-79
2023/06/09 05:09:05;;;;;;;13.60;4.93;;;;;;;-143.48;76.24;118439.88;5015875;28;20068;-79
2023/06/09 05:11:31;;;;;;;13.60;4.78;;;;;;;-143.48;76.26;118439.88;5017225;28;20092;-79
2023/06/09 05:13:56;;;;;;;16.70;5.10;;;;;;;-143.48;75.80;118439.88;5016142;28;20410;-79
2023/06/09 05:16:25;;;;;;;14.88;5.22;;;;;;;-143.48;74.27;118439.88;5019219;28;20041;-79
2023/06/09 05:18:51;;;;;;;15.75;5.63;;;;;;;-143.48;74.64;118439.88;5018543;28;20034;-78
2023/06/09 05:21:16;;;;;;;17.30;5.00;;;;;;;-143.48;74.78;118439.88;5018448;28;20048;-79
2023/06/09 05:23:42;;;;;;;12.77;4.57;;;;;;;-143.48;74.29;118439.88;5017223;28;20010;-79
2023/06/09 05:26:07;;;;;;;18.83;5.13;;;;;;;-143.48;75.29;118439.88;5018267;28;20036;-79
2023/06/09 05:28:32;;;;;;;22.67;5.68;;;;;;;-143.48;75.28;118439.88;5018435;28;20044;-79
2023/06/09 05:30:58;;;;;;;20.63;5.15;;;;;;;-143.48;75.17;118439.88;5019242;28;20519;-79
2023/06/09 05:33:23;;;;;;;16.58;5.32;;;;;;;-143.48;75.15;118439.88;5017546;28;20033;-79
2023/06/09 05:35:49;;;;;;;16.95;5.30;;;;;;;-143.48;72.41;118439.88;5018079;28;20044;-79
2023/06/09 05:38:14;;;;;;;14.00;5.35;;;;;;;-143.48;66.02;118439.88;5018588;28;20025;-79
2023/06/09 05:40:40;;;;;;;17.67;5.63;;;;;;;-143.48;58.41;118439.88;5018734;28;20033;-80
2023/06/09 05:43:05;;;;;;;14.32;4.95;;;;;;;-143.48;55.00;118439.88;5018758;28;20022;-80
2023/06/09 05:45:31;;;;;;;12.38;5.00;;;;;;;-143.48;57.21;118439.88;5017261;28;20025;-80
2023/06/09 05:47:56;;;;;;;15.23;5.50;;;;;;;-143.48;54.94;118439.88;5018076;28;20101;-80
2023/06/09 05:50:22;;;;;;;16.13;4.93;;;;;;;-143.48;52.91;118439.88;5016344;28;20030;-80
2023/06/09 05:52:47;;;;;;;16.27;4.88;;;;;;;-143.48;52.40;118439.88;5017018;28;20053;-80
2023/06/09 05:55:12;;;;;;;14.43;5.13;;;;;;;-143.48;48.98;118439.88;5018127;28;20029;-80
2023/06/09 05:57:40;;;;;;;18.52;5.57;;;;;;;-143.48;48.85;118439.88;5016657;28;20473;-80
2023/06/09 06:00:07;;;;;;;14.30;5.18;;;;;;;-143.48;48.94;118439.88;5017295;28;20033;-80
2023/06/09 06:02:33;;;;;;;16.15;5.07;;;;;;;-143.48;49.93;118439.88;5033768;28;20045;-81
2023/06/09 06:04:58;;;;;;;13.25;5.40;;;;;;;-143.48;49.96;118439.88;5021550;28;20025;-77
2023/06/09 06:07:24;;;;;;;13.05;5.07;;;;;;;-143.48;47.75;118439.88;5018269;28;20026;-77
2023/06/09 06:09:49;;;;;;;13.65;5.25;;;;;;;-143.48;48.17;118439.88;5017855;28;20460;-77
2023/06/09 06:12:15;;;;;;;14.10;4.90;;;;;;;-143.48;49.70;118439.88;5035634;28;20104;-77
2023/06/09 06:14:40;;;;;;;14.70;5.35;;;;;;;-143.48;50.25;118439.88;5035393;28;20109;-76
2023/06/09 06:17:05;;;;;;;15.40;5.05;;;;;;;-143.48;50.09;118439.88;5035525;28;20029;-76
2023/06/09 06:19:31;;;;;;;15.75;4.88;;;;;;;-143.48;48.38;118439.88;5016797;28;20377;-76
2023/06/09 06:21:56;;;;;;;13.18;5.22;;;;;;;-143.48;48.52;118439.88;5017090;28;20029;-76
2023/06/09 06:24:22;;;;;;;16.27;5.55;;;;;;;-143.48;49.42;118439.88;5035313;28;20045;-77
2023/06/09 06:26:47;;;;;;;16.38;5.22;;;;;;;-143.48;48.85;118439.88;5017346;28;20040;-77
2023/06/09 06:29:13;;;;;;;18.27;5.35;;;;;;;-143.48;50.15;118439.88;5035362;28;20040;-77
2023/06/09 06:31:39;;;;;;;13.18;5.53;;;;;;;-143.48;47.70;118439.88;5035225;28;20021;-76
2023/06/09 06:34:05;;;;;;;14.13;5.25;;;;;;;-143.48;51.06;118439.88;5016831;28;20017;-76
2023/06/09 06:36:31;;;;;;;18.58;5.60;;;;;;;-143.48;49.90;118439.88;5035119;28;20124;-76
2023/06/09 06:38:56;;;;;;;16.70;5.07;;;;;;;-143.48;48.57;118439.88;5035252;28;20096;-76
2023/06/09 06:41:22;;;;;;;18.15;5.30;;;;;;;-143.48;50.62;118439.88;5017179;28;20474;-77
2023/06/09 06:43:50;;;;;;;17.17;5.65;;;;;;;-143.48;49.17;118439.88;5035388;28;20014;-76
2023/06/09 06:46:17;;;;;;;13.10;5.47;;;;;;;-143.48;49.89;118439.88;5017616;28;20035;-77
2023/06/09 06:48:44;;;;;;;13.82;5.57;;;;;;;-143.48;50.13;118439.88;5034987;28;20024;-76
2023/06/09 06:51:09;;;;;;;18.50;5.45;;;;;;;-143.48;51.18;118439.88;5034939;28;20040;-76
2023/06/09 06:53:37;;;;;;;14.23;5.25;;;;;;;-143.48;52.31;118439.88;5017591;28;20026;-76
2023/06/09 06:56:02;;;;;;;14.02;5.03;;;;;;;-143.48;50.96;118439.88;5017377;28;20110;-77
2023/06/09 06:58:28;;;;;;;14.43;5.63;;;;;;;-143.48;50.55;118439.88;5017585;28;20029;-76
2023/06/09 07:00:56;;;;;;;12.18;4.88;;;;;;;-143.48;54.28;118439.88;5017987;28;20063;-76
2023/06/09 07:03:25;;;;;;;16.05;5.32;;;;;;;-143.48;54.83;118439.88;5036488;28;20017;-77
2023/06/09 07:05:51;;;;;;;19.60;5.72;;;;;;;-143.48;51.68;118439.88;5035285;28;20024;-75
2023/06/09 07:08:17;;;;;;;18.65;5.90;;;;;;;-143.48;50.34;118439.88;5034982;28;20453;-75
2023/06/09 07:10:42;;;;;;;19.50;5.80;;;;;;;-143.48;52.40;118439.88;5034946;28;20107;-75
2023/06/09 07:13:07;;;;;;;10.40;5.20;;;;;;;-143.48;50.61;118439.88;5017127;28;20036;-75
2023/06/09 07:15:33;;;;;;;14.85;6.15;;;;;;;-143.48;48.36;118439.88;5034285;28;20040;-75
2023/06/09 07:17:58;;;;;;;14.63;5.72;;;;;;;-143.48;49.43;118439.88;5034658;28;20032;-76
2023/06/09 07:20:24;;;;;;;16.58;5.85;;;;;;;-143.48;49.53;118439.88;5016300;28;20381;-77
2023/06/09 07:22:52;;;;;;;16.13;5.40;;;;;;;-143.48;49.50;118439.88;5016329;28;20080;-77
2023/06/09 07:25:17;;;;;;;15.43;5.70;;;;;;;-143.48;48.56;118439.88;5034334;28;20052;-76
2023/06/09 07:27:42;;;;;;;13.68;5.30;;;;;;;-143.48;48.58;118439.88;5016750;28;20116;-77
2023/06/09 07:30:09;;;;;;;17.15;6.25;;;;;;;-143.48;47.99;118439.88;5033846;28;20139;-76
2023/06/09 07:32:36;;;;;;;16.33;5.95;;;;;;;-143.48;47.72;118439.88;5034105;28;20096;-76
2023/06/09 07:35:02;;;;;;;14.15;5.35;;;;;;;-143.48;48.71;118439.88;5016161;28;20615;-75
2023/06/09 07:37:27;;;;;;;16.92;5.60;;;;;;;-143.48;49.50;118439.88;5015978;28;20032;-76
2023/06/09 07:39:53;;;;;;;12.98;5.30;;;;;;;-143.48;49.45;118439.88;5033964;28;20057;-76
2023/06/09 07:42:18;;;;;;;12.52;5.30;;;;;;;-143.48;46.86;118439.88;5016296;28;20113;-76
2023/06/09 07:44:44;;;;;;;13.65;5.43;;;;;;;-143.48;49.12;118439.88;5034023;28;20021;-76
2023/06/09 07:47:10;;;;;;;17.38;5.35;;;;;;;-143.48;47.50;118439.88;5015996;28;20022;-76
2023/06/09 07:49:36;;;;;;;14.45;5.90;;;;;;;-143.48;49.31;118439.88;5033820;28;20426;-76
2023/06/09 07:52:03;;;;;;;13.57;5.13;;;;;;;-143.48;47.15;118439.88;5016281;28;20060;-76
2023/06/09 07:54:29;;;;;;;11.27;5.28;;;;;;;-143.48;45.89;118439.88;5033731;28;20461;-75
2023/06/09 07:56:55;;;;;;;16.98;5.25;;;;;;;-143.48;47.00;118439.88;5034124;28;20027;-76
2023/06/09 07:59:20;;;;;;;14.55;5.57;;;;;;;-143.48;46.24;118439.88;5016256;28;20068;-76
2023/06/09 08:01:46;;;;;;;18.63;6.35;;;;;;;-143.48;47.21;118439.88;5012793;28;20089;-76
2023/06/09 08:04:13;;;;;;;13.70;6.07;;;;;;;-143.48;47.67;118439.88;5012531;28;20538;-77
2023/06/09 08:06:40;;;;;;;16.50;6.25;;;;;;;-143.48;48.31;118439.88;5012815;28;20462;-77
2023/06/09 08:09:06;;;;;;;17.08;5.78;;;;;;;-143.48;45.94;118439.88;5012762;28;20026;-77
2023/06/09 08:11:31;;;;;;;13.35;5.57;;;;;;;-143.48;45.31;118439.88;5012694;28;20026;-76
2023/06/09 08:13:57;;;;;;;14.98;5.60;;;;;;;-143.48;45.68;118439.88;5013972;28;20095;-77
2023/06/09 08:16:22;;;;;;;15.35;5.80;;;;;;;-143.48;46.11;118439.88;5012643;28;20561;-76
2023/06/09 08:18:47;;;;;;;15.60;5.40;;;;;;;-143.48;44.99;118439.88;5014126;28;20028;-77
2023/06/09 08:21:12;;;;;;;12.02;5.15;;;;;;;-143.48;45.22;118439.88;5012859;28;20037;-78
2023/06/09 08:23:42;;;;;;;12.80;5.47;;;;;;;-143.48;45.94;118439.88;5013891;28;20026;-77
2023/06/09 08:26:08;;;;;;;14.15;5.25;;;;;;;-143.48;45.51;118439.88;5014055;28;20080;-77
2023/06/09 08:28:33;;;;;;;12.55;5.50;;;;;;;-143.48;44.93;118439.88;5013983;28;20029;-77
2023/06/09 08:30:58;;;;;;;12.85;5.57;;;;;;;-143.48;44.47;118439.88;5013956;28;20033;-77
2023/06/09 08:33:28;;;;;;;12.82;5.20;;;;;;;-143.48;43.97;118439.88;5012489;28;20073;-77
2023/06/09 08:35:53;;;;;;;16.23;5.78;;;;;;;-143.48;42.93;118439.88;5012510;28;20030;-76
2023/06/09 08:38:18;;;;;;;14.63;5.45;;;;;;;-143.48;42.77;118439.88;5012314;28;20466;-76
2023/06/09 08:40:46;;;;;;;12.88;5.50;;;;;;;-143.48;42.43;118439.88;5013819;28;20025;-76
2023/06/09 08:43:12;;;;;;;12.52;5.15;;;;;;;-143.48;43.05;118439.88;5015696;28;20061;-76
2023/06/09 08:45:43;;;;;;;13.13;5.82;;;;;;;-143.48;43.75;118439.88;5000134;28;20038;-76
2023/06/09 08:48:16;;;;;;;19.88;5.97;;;;;;;-143.48;42.34;118439.88;5017606;28;20018;-76
2023/06/09 08:50:41;;;;;;;13.82;5.30;;;;;;;-143.48;43.86;118439.88;5016141;28;20030;-76
2023/06/09 08:53:08;;;;;;;11.13;5.40;;;;;;;-143.48;42.71;118439.88;5017458;28;20032;-77
2023/06/09 08:55:34;;;;;;;14.90;5.57;;;;;;;-143.48;43.30;118439.88;5017134;28;20065;-73
2023/06/09 08:58:00;;;;;;;17.92;6.35;;;;;;;-143.48;42.21;118439.88;5015911;28;20033;-76
2023/06/09 09:00:25;;;;;;;16.85;6.18;;;;;;;-143.48;42.59;118439.88;5016903;28;20103;-76
2023/06/09 09:02:51;;;;;;;11.18;5.07;;;;;;;-143.48;41.81;118439.88;5035294;28;20068;-76
2023/06/09 09:05:16;;;;;;;12.25;4.90;;;;;;;-143.48;41.75;118439.88;5037560;28;20079;-76
2023/06/09 09:07:44;;;;;;;12.23;5.65;;;;;;;-143.48;43.95;118439.88;5037119;28;20029;-76
2023/06/09 09:10:11;;;;;;;10.85;5.38;;;;;;;-143.48;42.10;118439.88;5036915;28;20101;-76
2023/06/09 09:12:47;;;;;;;15.95;6.07;;;;;;;-143.48;39.80;118439.88;5037303;28;20032;-76
2023/06/09 09:15:12;;;;;;;13.32;5.35;;;;;;;-143.48;43.14;118439.88;5018945;28;20504;-76
2023/06/09 09:17:40;;;;;;;13.50;5.70;;;;;;;-143.48;42.38;118439.88;5036750;28;20034;-76
2023/06/09 09:20:10;;;;;;;17.38;5.35;;;;;;;-143.48;41.04;118439.88;5036527;28;20026;-76
2023/06/09 09:22:49;;;;;;;12.02;5.50;;;;;;;-143.48;41.96;118439.88;5036813;28;20032;-76
2023/06/09 09:25:25;;;;;;;11.68;5.55;;;;;;;-143.48;41.02;118439.88;5018844;28;20583;-76
2023/06/09 09:28:11;;;;;;;17.08;5.60;;;;;;;-143.48;40.41;118439.88;5037074;28;20021;-76
2023/06/09 09:30:56;;;;;;;12.70;5.78;;;;;;;-143.48;42.58;118439.88;5036659;28;20037;-76
2023/06/09 09:33:23;;;;;;;15.07;5.95;;;;;;;-143.48;41.56;118439.88;5018596;28;20492;-76
2023/06/09 09:35:55;;;;;;;15.00;6.03;;;;;;;-143.48;41.23;118439.88;5036353;28;20034;-77
2023/06/09 09:38:25;;;;;;;13.75;5.50;;;;;;;-143.48;41.20;118439.88;5018445;28;20025;-77
2023/06/09 09:40:54;;;;;;;13.15;5.70;;;;;;;-143.48;41.17;118439.88;5018991;28;20045;-76
2023/06/09 09:43:21;;;;;;;14.73;5.57;;;;;;;-143.48;41.43;118439.88;5036476;28;20017;-76
2023/06/09 09:45:52;;;;;;;16.75;5.55;;;;;;;-143.48;41.39;118439.88;5018048;28;20021;-76
2023/06/09 09:48:21;;;;;;;14.05;5.95;;;;;;;-143.48;39.18;118439.88;5018464;28;20075;-76
2023/06/09 09:50:48;;;;;;;15.32;5.50;;;;;;;-143.48;38.67;118439.88;5017878;28;20451;-75
2023/06/09 09:53:15;;;;;;;15.18;5.07;;;;;;;-143.48;38.61;118439.88;5016408;28;20025;-76
2023/06/09 09:55:47;;;;;;;16.40;5.60;;;;;;;-143.48;39.20;118439.88;5018250;28;20025;-76
2023/06/09 09:58:14;;;;;;;13.30;5.53;;;;;;;-143.48;40.16;118439.88;5036035;28;20034;-76
2023/06/09 10:00:44;;;;;;;13.50;5.38;;;;;;;-143.48;40.19;118439.88;5035688;28;20049;-76
2023/06/09 10:03:15;;;;;;;16.10;6.07;;;;;;;-143.48;41.28;118439.88;5017930;28;20050;-77
2023/06/09 10:05:43;;;;;;;20.90;5.57;;;;;;;-143.48;39.18;118439.88;5018404;28;20029;-76
2023/06/09 10:08:12;;;;;;;24.35;6.30;;;;;;;-143.48;38.54;118439.88;5018264;28;20099;-76
2023/06/09 10:10:39;;;;;;;14.60;5.25;;;;;;;-143.48;38.14;118439.88;5035592;28;20032;-78
2023/06/09 10:13:05;;;;;;;16.80;5.57;;;;;;;-143.48;37.91;118439.88;5034946;28;20074;-77
2023/06/09 10:15:31;;;;;;;11.73;5.68;;;;;;;-143.48;39.32;118439.88;5017470;28;20029;-77
2023/06/09 10:17:59;;;;;;;10.75;5.10;;;;;;;-143.48;38.87;118439.88;5034013;28;20025;-76
2023/06/09 10:20:26;;;;;;;12.50;5.35;;;;;;;-143.48;38.57;118439.88;5016947;28;20077;-76
2023/06/09 10:22:55;;;;;;;11.75;5.05;;;;;;;-143.48;38.85;118439.88;5016345;28;20019;-76
2023/06/09 10:25:24;;;;;;;12.07;5.68;;;;;;;-143.48;37.55;118439.88;5016171;28;20021;-76
2023/06/09 10:27:50;;;;;;;17.90;5.95;;;;;;;-143.48;37.91;118439.88;5017353;28;20024;-76
2023/06/09 10:30:16;;;;;;;12.13;5.40;;;;;;;-143.48;38.60;118439.88;5017506;28;20536;-76
2023/06/09 10:33:16;;;;;;;9.93;4.97;;;;;;;-143.48;37.58;118439.88;5034885;28;20030;-74
2023/06/09 10:35:44;;;;;;;14.98;5.40;;;;;;;-143.48;38.17;118439.88;5023783;28;20163;-75
2023/06/09 10:38:30;;;;;;;12.38;5.32;;;;;;;-143.48;38.38;118439.88;5016995;28;20021;-76
2023/06/09 10:41:16;;;;;;;12.38;4.93;;;;;;;-143.48;38.45;118439.88;5035299;28;20029;-75
2023/06/09 10:43:51;;;;;;;8.30;4.93;;;;;;;-143.48;38.31;118439.88;5017516;28;20033;-76
2023/06/09 10:46:17;;;;;;;14.35;5.13;;;;;;;-143.48;38.30;118439.88;5017802;28;20492;-76
2023/06/09 10:48:49;;;;;;;11.77;5.35;;;;;;;-143.48;37.50;118439.88;5017413;28;20039;-76
2023/06/09 10:51:27;;;;;;;12.95;5.30;;;;;;;-143.48;37.18;118439.88;5017108;28;20057;-77
2023/06/09 10:54:09;;;;;;;11.18;5.03;;;;;;;-143.48;37.72;118439.88;5017407;28;20025;-76
2023/06/09 10:57:00;;;;;;;9.65;5.00;;;;;;;-143.48;37.36;118439.88;5017630;28;20118;-77
2023/06/09 10:59:25;;;;;;;12.52;5.18;;;;;;;-143.48;36.37;118439.88;5017147;28;20025;-76
2023/06/09 11:02:10;;;;;;;13.02;6.35;;;;;;;-143.48;37.16;118439.88;5035380;28;20065;-77
2023/06/09 11:04:49;;;;;;;13.38;5.20;;;;;;;-143.48;36.70;118439.88;5017295;28;20026;-76